This is the latest recevied weather packets stored in our database for station/object KA0WKG. If no packets are shown the sender has not sent any weather packets the latest 10 day(s).
| Time | Temp. | Humidity | Pressure | Rain* | Wind** | Luminosity | Snow |
|---|---|---|---|---|---|---|---|
| 1777527608 | 3.89° C | 96% | 1020.3 hPa | 0 mm | - | - | - |
| 1777525208 | 4.44° C | 96% | 1020.1 hPa | 0 mm | - | - | - |
| 1777524908 | 5° C | 95% | 1020 hPa | 0 mm | - | - | - |
| 1777523710 | 5° C | 95% | 1020 hPa | 0 mm | - | - | - |
| 1777522809 | 5° C | 96% | 1019.8 hPa | 0 mm | - | - | - |
| 1777522209 | 5° C | 96% | 1019.8 hPa | 0 mm | - | - | - |
| 1777519807 | 5.56° C | 94% | 1019.3 hPa | 0 mm | - | - | - |
| 1777519509 | 6.67° C | 91% | 1019.3 hPa | 0 mm | - | - | - |
| 1777518608 | 6.67° C | 91% | 1019.2 hPa | 0 mm | - | - | - |
| 1777515607 | 7.78° C | 90% | 1019 hPa | 0 mm | - | - | - |
| 1777513808 | 8.33° C | 87% | 1018.6 hPa | 1.27 mm | - | - | - |
| 1777512307 | 8.33° C | 91% | 1017.8 hPa | 1.27 mm | - | - | - |
| 1777511107 | 7.22° C | 90% | 1019.2 hPa | 1.02 mm | - | - | - |
| 1777509309 | 12.22° C | 77% | 1018.2 hPa | 0 mm | - | - | - |
| 1777509007 | 12.78° C | 78% | 1018 hPa | 0 mm | - | - | - |
| 1777508408 | 12.78° C | 76% | 1017.9 hPa | 0 mm | - | - | - |
| 1777507808 | 12.22° C | 78% | 1017.6 hPa | 0 mm | - | - | - |
| 1777506908 | 12.78° C | 78% | 1017.3 hPa | 0 mm | - | - | - |
| 1777506607 | 12.78° C | 80% | 1017.1 hPa | 0 mm | - | - | - |
| 1777506307 | 12.78° C | 78% | 1017.1 hPa | 0 mm | - | - | - |
| 1777504507 | 12.22° C | 78% | 1017.2 hPa | 0 mm | - | - | - |
| 1777497907 | 8.89° C | 91% | 1018.5 hPa | 0 mm | - | - | - |
| 1777497307 | 8.89° C | 92% | 1018.6 hPa | 0 mm | - | - | - |
| 1777495807 | 8.89° C | 92% | 1019.1 hPa | 0 mm | - | - | - |
| 1777495506 | 8.89° C | 93% | 1019.2 hPa | 0 mm | - | - | - |
* Rain latest hour (hover to see other rain measurements)
** Current wind speed in m/s (hover to see current wind gust speed)